sensor_id;sensor_type;location;lat;lon;timestamp;temperature;humidity
8338;DHT22;4206;48.634;9.516;2023-12-20T00:02:11;7.10;99.90
8338;DHT22;4206;48.634;9.516;2023-12-20T00:04:38;7.00;99.90
8338;DHT22;4206;48.634;9.516;2023-12-20T00:07:05;7.00;99.90
8338;DHT22;4206;48.634;9.516;2023-12-20T00:09:32;7.10;99.90
8338;DHT22;4206;48.634;9.516;2023-12-20T00:11:59;7.00;99.90
8338;DHT22;4206;48.634;9.516;2023-12-20T00:14:26;7.00;99.90
8338;DHT22;4206;48.634;9.516;2023-12-20T00:16:53;7.10;99.90
8338;DHT22;4206;48.634;9.516;2023-12-20T00:19:20;7.20;99.90
8338;DHT22;4206;48.634;9.516;2023-12-20T00:21:47;7.20;99.90
8338;DHT22;4206;48.634;9.516;2023-12-20T00:24:14;7.20;99.90
8338;DHT22;4206;48.634;9.516;2023-12-20T00:26:41;7.20;99.90
8338;DHT22;4206;48.634;9.516;2023-12-20T00:29:08;7.30;99.90
8338;DHT22;4206;48.634;9.516;2023-12-20T00:31:35;7.20;99.90
8338;DHT22;4206;48.634;9.516;2023-12-20T00:34:02;7.20;99.90
8338;DHT22;4206;48.634;9.516;2023-12-20T00:36:29;7.30;99.90
8338;DHT22;4206;48.634;9.516;2023-12-20T00:38:56;7.30;99.90
8338;DHT22;4206;48.634;9.516;2023-12-20T00:41:23;7.30;99.90
8338;DHT22;4206;48.634;9.516;2023-12-20T00:43:50;7.50;99.90
8338;DHT22;4206;48.634;9.516;2023-12-20T00:46:17;7.40;99.90
8338;DHT22;4206;48.634;9.516;2023-12-20T00:48:44;7.40;99.90
8338;DHT22;4206;48.634;9.516;2023-12-20T00:51:12;7.30;99.90
8338;DHT22;4206;48.634;9.516;2023-12-20T00:53:39;7.40;99.90
8338;DHT22;4206;48.634;9.516;2023-12-20T00:56:06;7.30;99.90
8338;DHT22;4206;48.634;9.516;2023-12-20T00:58:33;7.30;99.90
8338;DHT22;4206;48.634;9.516;2023-12-20T01:01:00;7.30;99.90
8338;DHT22;4206;48.634;9.516;2023-12-20T01:03:27;7.40;99.90
8338;DHT22;4206;48.634;9.516;2023-12-20T01:05:53;7.40;99.90
8338;DHT22;4206;48.634;9.516;2023-12-20T01:08:20;7.30;99.90
8338;DHT22;4206;48.634;9.516;2023-12-20T01:10:47;7.20;99.90
8338;DHT22;4206;48.634;9.516;2023-12-20T01:13:14;7.20;99.90
8338;DHT22;4206;48.634;9.516;2023-12-20T01:15:41;7.10;99.90
8338;DHT22;4206;48.634;9.516;2023-12-20T01:18:08;7.10;99.90
8338;DHT22;4206;48.634;9.516;2023-12-20T01:20:35;7.10;99.90
8338;DHT22;4206;48.634;9.516;2023-12-20T01:23:03;7.10;99.90
8338;DHT22;4206;48.634;9.516;2023-12-20T01:25:29;7.10;99.90
8338;DHT22;4206;48.634;9.516;2023-12-20T01:27:56;7.10;99.90
8338;DHT22;4206;48.634;9.516;2023-12-20T01:30:23;7.10;99.90
8338;DHT22;4206;48.634;9.516;2023-12-20T01:32:51;7.10;99.90
8338;DHT22;4206;48.634;9.516;2023-12-20T01:35:18;7.10;99.90
8338;DHT22;4206;48.634;9.516;2023-12-20T01:37:45;7.10;99.90
8338;DHT22;4206;48.634;9.516;2023-12-20T01:40:13;6.90;99.90
8338;DHT22;4206;48.634;9.516;2023-12-20T01:42:40;6.80;99.90
8338;DHT22;4206;48.634;9.516;2023-12-20T01:45:07;6.70;99.90
8338;DHT22;4206;48.634;9.516;2023-12-20T01:47:34;6.60;99.90
8338;DHT22;4206;48.634;9.516;2023-12-20T01:50:01;6.60;99.90
8338;DHT22;4206;48.634;9.516;2023-12-20T01:52:31;6.50;99.90
8338;DHT22;4206;48.634;9.516;2023-12-20T01:55:01;6.40;99.90
8338;DHT22;4206;48.634;9.516;2023-12-20T01:57:30;6.30;99.90
8338;DHT22;4206;48.634;9.516;2023-12-20T01:59:58;6.30;99.90
8338;DHT22;4206;48.634;9.516;2023-12-20T02:02:26;6.20;99.90
8338;DHT22;4206;48.634;9.516;2023-12-20T02:04:54;6.10;99.90
8338;DHT22;4206;48.634;9.516;2023-12-20T02:07:22;6.10;99.90
8338;DHT22;4206;48.634;9.516;2023-12-20T02:09:50;6.00;99.90
8338;DHT22;4206;48.634;9.516;2023-12-20T02:12:17;5.90;99.90
8338;DHT22;4206;48.634;9.516;2023-12-20T02:14:45;5.90;99.90
8338;DHT22;4206;48.634;9.516;2023-12-20T02:17:12;5.90;99.90
8338;DHT22;4206;48.634;9.516;2023-12-20T02:19:39;5.80;99.90
8338;DHT22;4206;48.634;9.516;2023-12-20T02:22:08;5.80;99.90
8338;DHT22;4206;48.634;9.516;2023-12-20T02:24:35;5.80;99.90
8338;DHT22;4206;48.634;9.516;2023-12-20T02:27:02;5.70;99.90
8338;DHT22;4206;48.634;9.516;2023-12-20T02:29:29;5.70;99.90
8338;DHT22;4206;48.634;9.516;2023-12-20T02:31:57;5.60;99.90
8338;DHT22;4206;48.634;9.516;2023-12-20T02:34:24;5.50;99.90
8338;DHT22;4206;48.634;9.516;2023-12-20T02:36:51;5.50;99.90
8338;DHT22;4206;48.634;9.516;2023-12-20T02:39:20;5.50;99.90
8338;DHT22;4206;48.634;9.516;2023-12-20T02:41:47;5.40;99.90
8338;DHT22;4206;48.634;9.516;2023-12-20T02:44:14;5.40;99.90
8338;DHT22;4206;48.634;9.516;2023-12-20T02:46:41;5.50;99.90
8338;DHT22;4206;48.634;9.516;2023-12-20T02:49:08;5.40;99.90
8338;DHT22;4206;48.634;9.516;2023-12-20T02:51:35;5.40;99.90
8338;DHT22;4206;48.634;9.516;2023-12-20T02:54:04;5.40;99.90
8338;DHT22;4206;48.634;9.516;2023-12-20T02:56:33;5.40;99.90
8338;DHT22;4206;48.634;9.516;2023-12-20T02:59:00;5.40;99.90
8338;DHT22;4206;48.634;9.516;2023-12-20T03:01:29;5.40;99.90
8338;DHT22;4206;48.634;9.516;2023-12-20T03:03:56;5.30;99.90
8338;DHT22;4206;48.634;9.516;2023-12-20T03:06:23;5.30;99.90
8338;DHT22;4206;48.634;9.516;2023-12-20T03:08:51;5.40;99.90
8338;DHT22;4206;48.634;9.516;2023-12-20T03:11:18;5.20;99.90
8338;DHT22;4206;48.634;9.516;2023-12-20T03:13:45;5.30;99.90
8338;DHT22;4206;48.634;9.516;2023-12-20T03:16:13;5.30;99.90
8338;DHT22;4206;48.634;9.516;2023-12-20T03:18:40;5.30;99.90
8338;DHT22;4206;48.634;9.516;2023-12-20T03:21:07;5.30;99.90
8338;DHT22;4206;48.634;9.516;2023-12-20T03:23:34;5.30;99.90
8338;DHT22;4206;48.634;9.516;2023-12-20T03:26:01;5.30;99.90
8338;DHT22;4206;48.634;9.516;2023-12-20T03:28:29;5.30;99.90
8338;DHT22;4206;48.634;9.516;2023-12-20T03:30:56;5.30;99.90
8338;DHT22;4206;48.634;9.516;2023-12-20T03:33:23;5.30;99.90
8338;DHT22;4206;48.634;9.516;2023-12-20T03:35:50;5.30;99.90
8338;DHT22;4206;48.634;9.516;2023-12-20T03:38:17;5.40;99.90
8338;DHT22;4206;48.634;9.516;2023-12-20T03:40:44;5.30;99.90
8338;DHT22;4206;48.634;9.516;2023-12-20T03:43:10;5.30;99.90
8338;DHT22;4206;48.634;9.516;2023-12-20T03:45:37;5.30;99.90
8338;DHT22;4206;48.634;9.516;2023-12-20T03:48:05;5.30;99.90
8338;DHT22;4206;48.634;9.516;2023-12-20T03:50:32;5.30;99.90
8338;DHT22;4206;48.634;9.516;2023-12-20T03:52:59;5.20;99.90
8338;DHT22;4206;48.634;9.516;2023-12-20T03:55:26;5.30;99.90
8338;DHT22;4206;48.634;9.516;2023-12-20T03:57:53;5.30;99.90
8338;DHT22;4206;48.634;9.516;2023-12-20T04:00:20;5.30;99.90
8338;DHT22;4206;48.634;9.516;2023-12-20T04:02:47;5.30;99.90
8338;DHT22;4206;48.634;9.516;2023-12-20T04:05:13;5.20;99.90
8338;DHT22;4206;48.634;9.516;2023-12-20T04:07:41;5.20;99.90
8338;DHT22;4206;48.634;9.516;2023-12-20T04:10:08;5.20;99.90
8338;DHT22;4206;48.634;9.516;2023-12-20T04:12:35;5.20;99.90
8338;DHT22;4206;48.634;9.516;2023-12-20T04:15:02;5.20;99.90
8338;DHT22;4206;48.634;9.516;2023-12-20T04:17:36;5.20;99.90
8338;DHT22;4206;48.634;9.516;2023-12-20T04:20:03;5.10;99.90
8338;DHT22;4206;48.634;9.516;2023-12-20T04:22:31;5.10;99.90
8338;DHT22;4206;48.634;9.516;2023-12-20T04:24:58;5.10;99.90
8338;DHT22;4206;48.634;9.516;2023-12-20T04:27:25;5.10;99.90
8338;DHT22;4206;48.634;9.516;2023-12-20T04:29:52;5.10;99.90
8338;DHT22;4206;48.634;9.516;2023-12-20T04:32:18;5.10;99.90
8338;DHT22;4206;48.634;9.516;2023-12-20T04:34:45;5.00;99.90
8338;DHT22;4206;48.634;9.516;2023-12-20T04:37:12;5.00;99.90
8338;DHT22;4206;48.634;9.516;2023-12-20T04:39:39;5.10;99.90
8338;DHT22;4206;48.634;9.516;2023-12-20T04:42:08;5.00;99.90
8338;DHT22;4206;48.634;9.516;2023-12-20T04:44:35;4.90;99.90
8338;DHT22;4206;48.634;9.516;2023-12-20T04:47:02;4.90;99.90
8338;DHT22;4206;48.634;9.516;2023-12-20T04:49:29;4.90;99.90
8338;DHT22;4206;48.634;9.516;2023-12-20T04:51:56;4.90;99.90
8338;DHT22;4206;48.634;9.516;2023-12-20T04:54:23;4.90;99.90
8338;DHT22;4206;48.634;9.516;2023-12-20T04:56:50;4.90;99.90
8338;DHT22;4206;48.634;9.516;2023-12-20T04:59:17;4.90;99.90
8338;DHT22;4206;48.634;9.516;2023-12-20T05:01:44;4.90;99.90
8338;DHT22;4206;48.634;9.516;2023-12-20T05:04:11;4.80;99.90
8338;DHT22;4206;48.634;9.516;2023-12-20T05:06:38;4.80;99.90
8338;DHT22;4206;48.634;9.516;2023-12-20T05:09:05;4.80;99.90
8338;DHT22;4206;48.634;9.516;2023-12-20T05:11:32;4.80;99.90
8338;DHT22;4206;48.634;9.516;2023-12-20T05:13:59;4.80;99.90
8338;DHT22;4206;48.634;9.516;2023-12-20T05:16:26;4.70;99.90
8338;DHT22;4206;48.634;9.516;2023-12-20T05:18:52;4.70;99.90
8338;DHT22;4206;48.634;9.516;2023-12-20T05:21:19;4.70;99.90
8338;DHT22;4206;48.634;9.516;2023-12-20T05:23:46;4.80;99.90
8338;DHT22;4206;48.634;9.516;2023-12-20T05:26:13;4.80;99.90
8338;DHT22;4206;48.634;9.516;2023-12-20T05:28:40;4.80;99.90
8338;DHT22;4206;48.634;9.516;2023-12-20T05:31:07;4.70;99.90
8338;DHT22;4206;48.634;9.516;2023-12-20T05:33:34;4.70;99.90
8338;DHT22;4206;48.634;9.516;2023-12-20T05:36:01;4.70;99.90
8338;DHT22;4206;48.634;9.516;2023-12-20T05:38:28;4.70;99.90
8338;DHT22;4206;48.634;9.516;2023-12-20T05:40:55;4.70;99.90
8338;DHT22;4206;48.634;9.516;2023-12-20T05:43:22;4.70;99.90
8338;DHT22;4206;48.634;9.516;2023-12-20T05:45:49;4.70;99.90
8338;DHT22;4206;48.634;9.516;2023-12-20T05:48:16;4.70;99.90
8338;DHT22;4206;48.634;9.516;2023-12-20T05:50:43;4.70;99.90
8338;DHT22;4206;48.634;9.516;2023-12-20T05:53:10;4.70;99.90
8338;DHT22;4206;48.634;9.516;2023-12-20T05:55:37;4.70;99.90
8338;DHT22;4206;48.634;9.516;2023-12-20T05:58:03;4.70;99.90
8338;DHT22;4206;48.634;9.516;2023-12-20T06:00:31;4.80;99.90
8338;DHT22;4206;48.634;9.516;2023-12-20T06:02:58;4.80;99.90
8338;DHT22;4206;48.634;9.516;2023-12-20T06:05:25;4.70;99.90
8338;DHT22;4206;48.634;9.516;2023-12-20T06:07:52;4.70;99.90
8338;DHT22;4206;48.634;9.516;2023-12-20T06:10:21;4.70;99.90
8338;DHT22;4206;48.634;9.516;2023-12-20T06:12:48;4.70;99.90
8338;DHT22;4206;48.634;9.516;2023-12-20T06:15:18;4.70;99.90
8338;DHT22;4206;48.634;9.516;2023-12-20T06:17:45;4.70;99.90
8338;DHT22;4206;48.634;9.516;2023-12-20T06:20:14;4.80;99.90
8338;DHT22;4206;48.634;9.516;2023-12-20T06:22:42;4.80;99.90
8338;DHT22;4206;48.634;9.516;2023-12-20T06:25:08;4.80;99.90
8338;DHT22;4206;48.634;9.516;2023-12-20T06:27:35;4.80;99.90
8338;DHT22;4206;48.634;9.516;2023-12-20T06:30:03;4.70;99.90
8338;DHT22;4206;48.634;9.516;2023-12-20T06:32:30;4.70;99.90
8338;DHT22;4206;48.634;9.516;2023-12-20T06:34:57;4.70;99.90
8338;DHT22;4206;48.634;9.516;2023-12-20T06:37:24;4.70;99.90
8338;DHT22;4206;48.634;9.516;2023-12-20T06:39:51;4.70;99.90
8338;DHT22;4206;48.634;9.516;2023-12-20T06:42:18;4.70;99.90
8338;DHT22;4206;48.634;9.516;2023-12-20T06:44:45;4.70;99.90
8338;DHT22;4206;48.634;9.516;2023-12-20T06:47:12;4.70;99.90
8338;DHT22;4206;48.634;9.516;2023-12-20T06:49:40;4.70;99.90
8338;DHT22;4206;48.634;9.516;2023-12-20T06:52:07;4.70;99.90
8338;DHT22;4206;48.634;9.516;2023-12-20T06:54:35;4.70;99.90
8338;DHT22;4206;48.634;9.516;2023-12-20T06:57:01;4.70;99.90
8338;DHT22;4206;48.634;9.516;2023-12-20T06:59:30;4.70;99.90
8338;DHT22;4206;48.634;9.516;2023-12-20T07:01:56;4.70;99.90
8338;DHT22;4206;48.634;9.516;2023-12-20T07:04:24;4.70;99.90
8338;DHT22;4206;48.634;9.516;2023-12-20T07:06:51;4.70;99.90
8338;DHT22;4206;48.634;9.516;2023-12-20T07:09:19;4.70;99.90
8338;DHT22;4206;48.634;9.516;2023-12-20T07:11:45;4.60;99.90
8338;DHT22;4206;48.634;9.516;2023-12-20T07:14:12;4.70;99.90
8338;DHT22;4206;48.634;9.516;2023-12-20T07:16:39;4.60;99.90
8338;DHT22;4206;48.634;9.516;2023-12-20T07:19:07;4.60;99.90
8338;DHT22;4206;48.634;9.516;2023-12-20T07:21:34;4.60;99.90
8338;DHT22;4206;48.634;9.516;2023-12-20T07:24:01;4.70;99.90
8338;DHT22;4206;48.634;9.516;2023-12-20T07:26:28;4.60;99.90
8338;DHT22;4206;48.634;9.516;2023-12-20T07:28:55;4.60;99.90
8338;DHT22;4206;48.634;9.516;2023-12-20T07:31:22;4.70;99.90
8338;DHT22;4206;48.634;9.516;2023-12-20T07:33:50;4.70;99.90
8338;DHT22;4206;48.634;9.516;2023-12-20T07:36:19;4.70;99.90
8338;DHT22;4206;48.634;9.516;2023-12-20T07:38:46;4.70;99.90
8338;DHT22;4206;48.634;9.516;2023-12-20T07:41:13;4.70;99.90
8338;DHT22;4206;48.634;9.516;2023-12-20T07:43:40;4.70;99.90
8338;DHT22;4206;48.634;9.516;2023-12-20T07:46:08;4.70;99.90
8338;DHT22;4206;48.634;9.516;2023-12-20T07:48:35;4.70;99.90
8338;DHT22;4206;48.634;9.516;2023-12-20T07:51:04;4.70;99.90
8338;DHT22;4206;48.634;9.516;2023-12-20T07:53:33;4.70;99.90
8338;DHT22;4206;48.634;9.516;2023-12-20T07:56:00;4.70;99.90
8338;DHT22;4206;48.634;9.516;2023-12-20T07:58:27;4.70;99.90
8338;DHT22;4206;48.634;9.516;2023-12-20T08:01:16;4.80;99.90
8338;DHT22;4206;48.634;9.516;2023-12-20T08:03:43;4.80;99.90
8338;DHT22;4206;48.634;9.516;2023-12-20T08:06:10;4.80;99.90
8338;DHT22;4206;48.634;9.516;2023-12-20T08:08:37;4.80;99.90
8338;DHT22;4206;48.634;9.516;2023-12-20T08:11:04;4.90;99.90
8338;DHT22;4206;48.634;9.516;2023-12-20T08:13:31;4.90;99.90
8338;DHT22;4206;48.634;9.516;2023-12-20T08:15:58;4.90;99.90
8338;DHT22;4206;48.634;9.516;2023-12-20T08:18:27;4.90;99.90
8338;DHT22;4206;48.634;9.516;2023-12-20T08:20:54;4.90;99.90
8338;DHT22;4206;48.634;9.516;2023-12-20T08:23:21;4.90;99.90
8338;DHT22;4206;48.634;9.516;2023-12-20T08:25:52;4.90;99.90
8338;DHT22;4206;48.634;9.516;2023-12-20T08:28:19;4.90;99.90
8338;DHT22;4206;48.634;9.516;2023-12-20T08:30:46;4.80;99.90
8338;DHT22;4206;48.634;9.516;2023-12-20T08:33:13;4.80;99.90
8338;DHT22;4206;48.634;9.516;2023-12-20T08:35:40;4.80;99.90
8338;DHT22;4206;48.634;9.516;2023-12-20T08:38:07;4.80;99.90
8338;DHT22;4206;48.634;9.516;2023-12-20T08:40:34;4.80;99.90
8338;DHT22;4206;48.634;9.516;2023-12-20T08:43:01;4.80;99.90
8338;DHT22;4206;48.634;9.516;2023-12-20T08:45:28;4.80;99.90
8338;DHT22;4206;48.634;9.516;2023-12-20T08:47:55;4.80;99.90
8338;DHT22;4206;48.634;9.516;2023-12-20T08:50:27;4.80;99.90
8338;DHT22;4206;48.634;9.516;2023-12-20T08:52:54;4.80;99.90
8338;DHT22;4206;48.634;9.516;2023-12-20T08:55:21;4.80;99.90
8338;DHT22;4206;48.634;9.516;2023-12-20T08:57:48;4.80;99.90
8338;DHT22;4206;48.634;9.516;2023-12-20T09:00:16;4.70;99.90
8338;DHT22;4206;48.634;9.516;2023-12-20T09:02:43;4.80;99.90
8338;DHT22;4206;48.634;9.516;2023-12-20T09:05:10;4.70;99.90
8338;DHT22;4206;48.634;9.516;2023-12-20T09:07:37;4.70;99.90
8338;DHT22;4206;48.634;9.516;2023-12-20T09:10:04;4.70;99.90
8338;DHT22;4206;48.634;9.516;2023-12-20T09:12:31;4.70;99.90
8338;DHT22;4206;48.634;9.516;2023-12-20T09:14:58;4.60;99.90
8338;DHT22;4206;48.634;9.516;2023-12-20T09:17:25;4.70;99.90
8338;DHT22;4206;48.634;9.516;2023-12-20T09:19:52;4.60;99.90
8338;DHT22;4206;48.634;9.516;2023-12-20T09:22:21;4.60;99.90
8338;DHT22;4206;48.634;9.516;2023-12-20T09:24:48;4.60;99.90
8338;DHT22;4206;48.634;9.516;2023-12-20T09:27:15;4.60;99.90
8338;DHT22;4206;48.634;9.516;2023-12-20T09:29:42;4.60;99.90
8338;DHT22;4206;48.634;9.516;2023-12-20T09:32:09;4.60;99.90
8338;DHT22;4206;48.634;9.516;2023-12-20T09:34:36;4.60;99.90
8338;DHT22;4206;48.634;9.516;2023-12-20T09:37:04;4.60;99.90
8338;DHT22;4206;48.634;9.516;2023-12-20T09:39:33;4.60;99.90
8338;DHT22;4206;48.634;9.516;2023-12-20T09:42:01;4.60;99.90
8338;DHT22;4206;48.634;9.516;2023-12-20T09:44:29;4.60;99.90
8338;DHT22;4206;48.634;9.516;2023-12-20T09:46:57;4.60;99.90
8338;DHT22;4206;48.634;9.516;2023-12-20T09:49:27;4.90;99.90
8338;DHT22;4206;48.634;9.516;2023-12-20T09:51:54;4.90;99.90
8338;DHT22;4206;48.634;9.516;2023-12-20T09:54:23;4.90;99.90
8338;DHT22;4206;48.634;9.516;2023-12-20T09:56:50;5.00;99.90
8338;DHT22;4206;48.634;9.516;2023-12-20T09:59:18;5.10;99.90
8338;DHT22;4206;48.634;9.516;2023-12-20T10:01:45;5.10;99.90
8338;DHT22;4206;48.634;9.516;2023-12-20T10:04:13;5.40;99.90
8338;DHT22;4206;48.634;9.516;2023-12-20T10:06:55;5.70;99.90
8338;DHT22;4206;48.634;9.516;2023-12-20T10:09:24;6.20;99.90
8338;DHT22;4206;48.634;9.516;2023-12-20T10:11:54;6.30;99.90
8338;DHT22;4206;48.634;9.516;2023-12-20T10:14:21;6.20;99.90
8338;DHT22;4206;48.634;9.516;2023-12-20T10:16:49;6.20;99.90
8338;DHT22;4206;48.634;9.516;2023-12-20T10:19:17;6.10;99.90
8338;DHT22;4206;48.634;9.516;2023-12-20T10:21:45;5.90;99.90
8338;DHT22;4206;48.634;9.516;2023-12-20T10:24:17;5.80;99.90
8338;DHT22;4206;48.634;9.516;2023-12-20T10:26:45;5.70;99.90
8338;DHT22;4206;48.634;9.516;2023-12-20T10:29:11;5.70;99.90
8338;DHT22;4206;48.634;9.516;2023-12-20T10:31:38;5.90;99.90
8338;DHT22;4206;48.634;9.516;2023-12-20T10:34:05;5.90;99.90
8338;DHT22;4206;48.634;9.516;2023-12-20T10:36:33;6.00;99.90
8338;DHT22;4206;48.634;9.516;2023-12-20T10:39:00;6.00;99.90
8338;DHT22;4206;48.634;9.516;2023-12-20T10:41:30;6.20;99.90
8338;DHT22;4206;48.634;9.516;2023-12-20T10:44:02;6.20;99.90
8338;DHT22;4206;48.634;9.516;2023-12-20T10:46:30;6.00;99.90
8338;DHT22;4206;48.634;9.516;2023-12-20T10:48:58;5.90;99.90
8338;DHT22;4206;48.634;9.516;2023-12-20T10:51:25;5.90;99.90
8338;DHT22;4206;48.634;9.516;2023-12-20T10:53:55;5.90;99.90
8338;DHT22;4206;48.634;9.516;2023-12-20T10:56:22;5.80;99.90
8338;DHT22;4206;48.634;9.516;2023-12-20T10:58:52;5.70;99.90
8338;DHT22;4206;48.634;9.516;2023-12-20T11:01:20;5.50;99.90
8338;DHT22;4206;48.634;9.516;2023-12-20T11:03:50;5.40;99.90
8338;DHT22;4206;48.634;9.516;2023-12-20T11:06:29;5.20;99.90
8338;DHT22;4206;48.634;9.516;2023-12-20T11:09:08;5.20;99.90
8338;DHT22;4206;48.634;9.516;2023-12-20T11:14:39;5.10;99.90
8338;DHT22;4206;48.634;9.516;2023-12-20T11:17:09;5.20;99.90
8338;DHT22;4206;48.634;9.516;2023-12-20T11:19:38;5.20;99.90
8338;DHT22;4206;48.634;9.516;2023-12-20T11:22:05;5.20;99.90
8338;DHT22;4206;48.634;9.516;2023-12-20T11:24:33;5.10;99.90
8338;DHT22;4206;48.634;9.516;2023-12-20T11:27:00;5.10;99.90
8338;DHT22;4206;48.634;9.516;2023-12-20T11:32:01;5.20;99.90
8338;DHT22;4206;48.634;9.516;2023-12-20T11:34:31;5.10;99.90
8338;DHT22;4206;48.634;9.516;2023-12-20T11:37:00;5.00;99.90
8338;DHT22;4206;48.634;9.516;2023-12-20T11:39:27;5.00;99.90
8338;DHT22;4206;48.634;9.516;2023-12-20T11:41:56;5.00;99.90
8338;DHT22;4206;48.634;9.516;2023-12-20T11:44:25;5.10;99.90
8338;DHT22;4206;48.634;9.516;2023-12-20T11:46:54;5.10;99.90
8338;DHT22;4206;48.634;9.516;2023-12-20T11:49:23;5.00;99.90
8338;DHT22;4206;48.634;9.516;2023-12-20T11:51:51;5.00;99.90
8338;DHT22;4206;48.634;9.516;2023-12-20T11:54:18;4.90;99.90
8338;DHT22;4206;48.634;9.516;2023-12-20T11:56:46;4.90;99.90
8338;DHT22;4206;48.634;9.516;2023-12-20T11:59:14;4.90;99.90
8338;DHT22;4206;48.634;9.516;2023-12-20T12:01:51;4.90;99.90
8338;DHT22;4206;48.634;9.516;2023-12-20T12:04:19;4.90;99.90
8338;DHT22;4206;48.634;9.516;2023-12-20T12:06:46;4.90;99.90
8338;DHT22;4206;48.634;9.516;2023-12-20T12:09:14;4.80;99.90
8338;DHT22;4206;48.634;9.516;2023-12-20T12:11:42;5.00;99.90
8338;DHT22;4206;48.634;9.516;2023-12-20T12:14:09;5.10;99.90
8338;DHT22;4206;48.634;9.516;2023-12-20T12:16:36;5.30;99.90
8338;DHT22;4206;48.634;9.516;2023-12-20T12:19:03;5.40;99.90
8338;DHT22;4206;48.634;9.516;2023-12-20T12:21:31;5.50;99.90
8338;DHT22;4206;48.634;9.516;2023-12-20T12:24:08;5.70;99.90
8338;DHT22;4206;48.634;9.516;2023-12-20T12:26:35;5.70;99.90
8338;DHT22;4206;48.634;9.516;2023-12-20T12:29:02;5.60;99.90
8338;DHT22;4206;48.634;9.516;2023-12-20T12:31:30;5.60;99.90
8338;DHT22;4206;48.634;9.516;2023-12-20T12:33:57;5.50;99.90
8338;DHT22;4206;48.634;9.516;2023-12-20T12:36:24;5.50;99.90
8338;DHT22;4206;48.634;9.516;2023-12-20T12:38:51;5.30;99.90
8338;DHT22;4206;48.634;9.516;2023-12-20T12:41:18;5.30;99.90
8338;DHT22;4206;48.634;9.516;2023-12-20T12:43:45;5.20;99.90
8338;DHT22;4206;48.634;9.516;2023-12-20T12:46:12;5.20;99.90
8338;DHT22;4206;48.634;9.516;2023-12-20T12:48:39;5.20;99.90
8338;DHT22;4206;48.634;9.516;2023-12-20T12:51:08;5.20;99.90
8338;DHT22;4206;48.634;9.516;2023-12-20T12:53:40;5.20;99.90
8338;DHT22;4206;48.634;9.516;2023-12-20T12:56:07;5.20;99.90
8338;DHT22;4206;48.634;9.516;2023-12-20T12:58:34;5.10;99.90
8338;DHT22;4206;48.634;9.516;2023-12-20T13:01:01;5.00;99.90
8338;DHT22;4206;48.634;9.516;2023-12-20T13:03:30;5.00;99.90
8338;DHT22;4206;48.634;9.516;2023-12-20T13:05:57;5.00;99.90
8338;DHT22;4206;48.634;9.516;2023-12-20T13:08:24;5.10;99.90
8338;DHT22;4206;48.634;9.516;2023-12-20T13:10:51;5.10;99.90
8338;DHT22;4206;48.634;9.516;2023-12-20T13:13:18;5.20;99.90
8338;DHT22;4206;48.634;9.516;2023-12-20T13:15:45;5.20;99.90
8338;DHT22;4206;48.634;9.516;2023-12-20T13:18:18;5.20;99.90
8338;DHT22;4206;48.634;9.516;2023-12-20T13:20:45;5.20;99.90
8338;DHT22;4206;48.634;9.516;2023-12-20T13:23:12;5.20;99.90
8338;DHT22;4206;48.634;9.516;2023-12-20T13:25:40;5.20;99.90
8338;DHT22;4206;48.634;9.516;2023-12-20T13:28:07;5.20;99.90
8338;DHT22;4206;48.634;9.516;2023-12-20T13:30:35;5.20;99.90
8338;DHT22;4206;48.634;9.516;2023-12-20T13:33:02;5.10;99.90
8338;DHT22;4206;48.634;9.516;2023-12-20T13:35:30;5.10;99.90
8338;DHT22;4206;48.634;9.516;2023-12-20T13:37:58;5.10;99.90
8338;DHT22;4206;48.634;9.516;2023-12-20T13:40:25;5.10;99.90
8338;DHT22;4206;48.634;9.516;2023-12-20T13:42:52;5.10;99.90
8338;DHT22;4206;48.634;9.516;2023-12-20T13:45:19;5.10;99.90
8338;DHT22;4206;48.634;9.516;2023-12-20T13:47:46;5.10;99.90
8338;DHT22;4206;48.634;9.516;2023-12-20T13:50:13;5.20;99.90
8338;DHT22;4206;48.634;9.516;2023-12-20T13:52:40;5.20;99.90
8338;DHT22;4206;48.634;9.516;2023-12-20T13:55:08;5.10;99.90
8338;DHT22;4206;48.634;9.516;2023-12-20T13:57:36;5.10;99.90
8338;DHT22;4206;48.634;9.516;2023-12-20T14:00:20;5.10;99.90
8338;DHT22;4206;48.634;9.516;2023-12-20T14:02:47;5.10;99.90
8338;DHT22;4206;48.634;9.516;2023-12-20T14:05:16;5.20;99.90
8338;DHT22;4206;48.634;9.516;2023-12-20T14:07:45;5.20;99.90
8338;DHT22;4206;48.634;9.516;2023-12-20T14:10:14;5.20;99.90
8338;DHT22;4206;48.634;9.516;2023-12-20T14:12:41;5.20;99.90
8338;DHT22;4206;48.634;9.516;2023-12-20T14:15:08;5.20;99.90
8338;DHT22;4206;48.634;9.516;2023-12-20T14:17:38;5.10;99.90
8338;DHT22;4206;48.634;9.516;2023-12-20T14:20:06;5.10;99.90
8338;DHT22;4206;48.634;9.516;2023-12-20T14:22:34;5.10;99.90
8338;DHT22;4206;48.634;9.516;2023-12-20T14:25:02;5.10;99.90
8338;DHT22;4206;48.634;9.516;2023-12-20T14:27:29;5.10;99.90
8338;DHT22;4206;48.634;9.516;2023-12-20T14:29:56;5.00;99.90
8338;DHT22;4206;48.634;9.516;2023-12-20T14:32:24;5.00;99.90
8338;DHT22;4206;48.634;9.516;2023-12-20T14:34:53;5.00;99.90
8338;DHT22;4206;48.634;9.516;2023-12-20T14:37:22;5.10;99.90
8338;DHT22;4206;48.634;9.516;2023-12-20T14:39:49;5.20;99.90
8338;DHT22;4206;48.634;9.516;2023-12-20T14:42:16;5.20;99.90
8338;DHT22;4206;48.634;9.516;2023-12-20T14:44:43;5.10;99.90
8338;DHT22;4206;48.634;9.516;2023-12-20T14:47:10;5.10;99.90
8338;DHT22;4206;48.634;9.516;2023-12-20T14:49:37;5.10;99.90
8338;DHT22;4206;48.634;9.516;2023-12-20T14:52:04;5.10;99.90
8338;DHT22;4206;48.634;9.516;2023-12-20T14:54:32;5.00;99.90
8338;DHT22;4206;48.634;9.516;2023-12-20T14:57:01;5.00;99.90
8338;DHT22;4206;48.634;9.516;2023-12-20T14:59:31;5.00;99.90
8338;DHT22;4206;48.634;9.516;2023-12-20T15:01:58;5.00;99.90
8338;DHT22;4206;48.634;9.516;2023-12-20T15:04:25;5.10;99.90
8338;DHT22;4206;48.634;9.516;2023-12-20T15:06:55;5.10;99.90
8338;DHT22;4206;48.634;9.516;2023-12-20T15:09:23;5.00;99.90
8338;DHT22;4206;48.634;9.516;2023-12-20T15:11:51;5.00;99.90
8338;DHT22;4206;48.634;9.516;2023-12-20T15:14:18;5.00;99.90
8338;DHT22;4206;48.634;9.516;2023-12-20T15:16:46;5.00;99.90
8338;DHT22;4206;48.634;9.516;2023-12-20T15:19:14;4.90;99.90
8338;DHT22;4206;48.634;9.516;2023-12-20T15:21:41;4.90;99.90
8338;DHT22;4206;48.634;9.516;2023-12-20T15:24:13;4.90;99.90
8338;DHT22;4206;48.634;9.516;2023-12-20T15:26:43;4.90;99.90
8338;DHT22;4206;48.634;9.516;2023-12-20T15:29:10;5.00;99.90
8338;DHT22;4206;48.634;9.516;2023-12-20T15:31:43;4.90;99.90
8338;DHT22;4206;48.634;9.516;2023-12-20T15:34:11;4.90;99.90
8338;DHT22;4206;48.634;9.516;2023-12-20T15:36:39;4.80;99.90
8338;DHT22;4206;48.634;9.516;2023-12-20T15:39:06;4.80;99.90
8338;DHT22;4206;48.634;9.516;2023-12-20T15:41:35;4.80;99.90
8338;DHT22;4206;48.634;9.516;2023-12-20T15:44:02;4.70;99.90
8338;DHT22;4206;48.634;9.516;2023-12-20T15:46:29;4.70;99.90
8338;DHT22;4206;48.634;9.516;2023-12-20T15:48:56;4.70;99.90
8338;DHT22;4206;48.634;9.516;2023-12-20T15:51:23;4.70;99.90
8338;DHT22;4206;48.634;9.516;2023-12-20T15:53:51;4.70;99.90
8338;DHT22;4206;48.634;9.516;2023-12-20T15:56:18;4.70;99.90
8338;DHT22;4206;48.634;9.516;2023-12-20T15:58:45;4.70;99.90
8338;DHT22;4206;48.634;9.516;2023-12-20T16:01:14;4.60;99.90
8338;DHT22;4206;48.634;9.516;2023-12-20T16:03:42;4.60;99.90
8338;DHT22;4206;48.634;9.516;2023-12-20T16:06:19;4.60;99.90
8338;DHT22;4206;48.634;9.516;2023-12-20T16:08:48;4.60;99.90
8338;DHT22;4206;48.634;9.516;2023-12-20T16:11:15;4.50;99.90
8338;DHT22;4206;48.634;9.516;2023-12-20T16:13:42;4.60;99.90
8338;DHT22;4206;48.634;9.516;2023-12-20T16:16:10;4.50;99.90
8338;DHT22;4206;48.634;9.516;2023-12-20T16:18:37;4.60;99.90
8338;DHT22;4206;48.634;9.516;2023-12-20T16:21:04;4.60;99.90
8338;DHT22;4206;48.634;9.516;2023-12-20T16:23:31;4.60;99.90
8338;DHT22;4206;48.634;9.516;2023-12-20T16:25:58;4.70;99.90